那覇空港の過去48時間の天気

那覇空港 (Naha)

現在時刻: 2/21 02:01 JST (2/20 17:01 UTC) 以下の時間は現地時間です。

過去48時間のMETAR気象情報
時間 風向 風速(m/s) 視程 気温(℃) 湿度(%) 気圧(hPa) 天気現象
21 01:30 5 10km以上 18 68 1028
21 01:00 東北東 4 10km以上 18 73 1028
21 00:30 東北東 4 10km以上 17 72 1028
21 00:00 北東 3 10km以上 17 72 1029
20 23:30 北東 4 10km以上 17 72 1029
20 23:00 北東 3 10km以上 17 72 1029
20 22:30 北東 3 10km以上 18 64 1029
20 22:00 東北東 4 10km以上 18 64 1029
20 21:30 東北東 4 10km以上 18 60 1029
20 21:00 東北東 5 10km以上 18 60 1029
20 20:30 東北東 5 10km以上 18 64 1029
20 20:00 東北東 4 10km以上 19 56 1028
20 19:30 北東 5 10km以上 19 56 1028
20 19:00 東北東 5 10km以上 19 56 1028
20 18:30 東北東 5 10km以上 19 60 1027
20 18:00 東北東 5 10km以上 19 60 1027
20 17:30 5 10km以上 20 56 1027
20 17:00 東北東 4 10km以上 20 53 1026
20 16:30 東北東 5 10km以上 20 53 1026
20 16:00 東北東 5 10km以上 20 53 1026
20 15:30 東北東 5 10km以上 20 53 1026
20 15:00 5 10km以上 20 53 1026
20 14:30 4 10km以上 21 49 1026
20 14:00 4 10km以上 21 49 1026
20 13:30 4 10km以上 21 49 1026
20 13:00 北東 4 10km以上 22 46 1027
20 12:30 5 10km以上 21 49 1027
20 12:00 北東 3 10km以上 21 49 1027
20 11:30 東北東 4 10km以上 21 46 1027
20 11:00 北東 4 10km以上 20 46 1027
20 10:30 4 10km以上 20 43 1028
20 10:00 東北東 4 10km以上 20 46 1028
20 09:30 4 10km以上 18 49 1027
20 09:00 東北東 4 10km以上 18 52 1027
20 08:30 東北東 3 10km以上 17 59 1027
20 08:00 東北東 2 10km以上 16 63 1027
20 07:30 北東 3 10km以上 15 67 1026
20 07:00 東北東 3 10km以上 15 67 1026
20 06:30 東北東 3 10km以上 15 67 1025
20 06:00 北東 3 10km以上 15 72 1025
20 05:30 北東 3 10km以上 16 63 1024
20 05:00 北東 3 10km以上 15 67 1025
20 04:30 北東 1 10km以上 15 67 1024
20 04:00 不定 1 10km以上 14 72 1024
20 03:30 北北東 2 10km以上 14 72 1024
20 03:00 不定 1 10km以上 15 72 1025
20 02:30 東北東 2 10km以上 16 72 1025
20 02:00 東北東 2 10km以上 15 72 1025
20 01:30 2 10km以上 15 67 1025
20 01:00 東北東 3 10km以上 15 67 1025
20 00:30 3 10km以上 16 63 1025
20 00:00 2 10km以上 15 67 1025
19 23:30 3 10km以上 16 63 1026
19 23:00 東北東 2 10km以上 16 63 1026
19 22:30 東北東 2 10km以上 16 63 1026
19 22:00 3 10km以上 16 63 1026
19 21:30 2 10km以上 16 63 1026
19 21:00 東北東 3 10km以上 17 59 1026
19 20:30 北東 3 10km以上 17 59 1025
19 20:00 北北東 2 10km以上 17 59 1025
19 19:30 北東 3 10km以上 17 55 1025
19 19:00 3 10km以上 17 52 1025
19 18:30 3 10km以上 18 49 1024
19 18:00 4 10km以上 18 49 1024
19 17:30 5 10km以上 18 49 1024
19 17:00 5 10km以上 19 46 1024
19 16:30 4 10km以上 19 46 1024
19 16:00 5 10km以上 19 46 1024
19 15:30 5 10km以上 19 46 1024
19 15:00 5 10km以上 19 46 1024
19 14:30 5 10km以上 19 46 1024
19 14:00 北北西 6 10km以上 19 49 1024
19 13:30 6 10km以上 19 46 1025
19 13:00 5 10km以上 19 49 1025
19 12:30 6 10km以上 18 49 1025
19 12:00 北東 5 10km以上 18 49 1026
19 11:30 北北東 6 10km以上 18 52 1026
19 11:00 北北東 5 10km以上 18 49 1027
19 10:30 北北東 5 10km以上 17 48 1027
19 10:00 東北東 4 10km以上 16 55 1027
19 09:30 東北東 5 10km以上 16 55 1027 周辺でしゅう雨
19 09:00 東北東 4 10km以上 16 55 1027 周辺でしゅう雨
19 08:30 東北東 4 10km以上 16 55 1027
19 08:00 東北東 3 10km以上 15 59 1027
19 07:30 東北東 3 10km以上 15 63 1026
19 07:00 東北東 4 10km以上 15 63 1026
19 06:30 東北東 3 10km以上 15 59 1025 周辺でしゅう雨
19 06:00 東北東 3 10km以上 15 59 1025 周辺でしゅう雨
19 05:30 2 10km以上 15 59 1025
19 05:00 2 10km以上 14 63 1025
19 04:30 3 10km以上 15 59 1025
19 04:00 北東 3 10km以上 15 63 1025
19 03:30 北東 4 10km以上 15 63 1025
19 03:00 東北東 4 10km以上 15 59 1025
19 02:30 北東 2 10km以上 14 59 1025
ROAH 201630Z 08010KT 9999 FEW025 18/12 Q1028 RMK 1CU025 A3036
ROAH 201600Z 07007KT 9999 FEW025 18/13 Q1028 RMK 1CU025 A3037
ROAH 201530Z 06008KT 9999 FEW035 17/12 Q1028 RMK 1SC035 A3038
ROAH 201500Z 05006KT 9999 FEW035 17/12 Q1029 RMK 1SC035 A3039
ROAH 201430Z 04007KT 9999 FEW035 17/12 Q1029 RMK 1SC035 A3039
ROAH 201400Z 05006KT 9999 FEW035 17/12 Q1029 RMK 1SC035 A3039
ROAH 201330Z 05006KT 9999 FEW040 18/11 Q1029 RMK 1SC040 A3039
ROAH 201300Z 07007KT 9999 FEW040 18/11 Q1029 RMK 1SC040 A3039
ROAH 201230Z 06007KT 9999 FEW040 18/10 Q1029 RMK 1SC040 A3039
ROAH 201200Z 06009KT 9999 FEW040 18/10 Q1029 RMK 1SC040 A3039
ROAH 201130Z 07009KT 020V100 9999 FEW040 18/11 Q1029 RMK 1SC040 A3039
ROAH 201100Z 06008KT 020V080 9999 FEW040 SCT060 19/10 Q1028 RMK 1SC040 3SC060 A3038
ROAH 201030Z 05010KT 9999 FEW040 BKN060 19/10 Q1028 RMK 1SC040 5SC060 A3037
ROAH 201000Z 07010KT 9999 FEW040 BKN060 19/10 Q1028 RMK 1SC040 6SC060 A3036
ROAH 200930Z 06010KT 010V090 9999 FEW040 BKN060 19/11 Q1027 RMK 1SC040 6SC060 A3035
ROAH 200900Z 07010KT 9999 FEW040 BKN060 19/11 Q1027 RMK 1SC040 5SC060 A3034
ROAH 200830Z 08010KT 9999 FEW040 SCT050 20/11 Q1027 RMK 1SC040 4SC050 A3033
ROAH 200800Z 07008KT 040V110 9999 FEW040 BKN050 20/10 Q1026 RMK 1SC040 5SC050 A3032
ROAH 200730Z 07009KT 040V110 9999 FEW040 SCT050 20/10 Q1026 RMK 1SC040 4SC050 A3031
ROAH 200700Z 06010KT 9999 FEW040 SCT050 20/10 Q1026 RMK 1SC040 4SC050 A3031
ROAH 200630Z 07010KT 030V110 9999 FEW040 SCT050 20/10 Q1026 RMK 1SC040 4SC050 A3031
ROAH 200600Z 08010KT 9999 FEW040 SCT045 20/10 Q1026 RMK 1CU040 4SC045 A3031
ROAH 200530Z 08008KT 9999 FEW040 SCT045 21/10 Q1026 RMK 1CU040 3SC045 A3031
ROAH 200500Z 08008KT 030V130 9999 FEW040 SCT045 21/10 Q1026 RMK 1CU040 3SC045 A3032
ROAH 200430Z 08008KT 050V130 9999 FEW035 SCT045 21/10 Q1026 RMK 1CU035 3SC045 A3032
ROAH 200400Z 05007KT 360V120 9999 FEW035 SCT050 22/10 Q1027 RMK 1CU035 3SC050 A3034
ROAH 200330Z 09010KT 9999 FEW035 SCT070 21/10 Q1027 RMK 1CU035 3AC070 A3034
ROAH 200300Z 04005KT 320V120 9999 FEW035 SCT070 21/10 Q1027 RMK 1CU035 3AC070 A3035
ROAH 200230Z 07008KT 020V130 9999 FEW035 BKN070 21/09 Q1027 RMK 1CU035 5AC070 A3035
ROAH 200200Z 05007KT 9999 FEW035 BKN070 20/08 Q1027 RMK 1CU035 6AC070 A3035
ROAH 200130Z 08008KT 040V110 9999 FEW035 BKN070 20/07 Q1028 RMK 1CU035 5AC070 A3036
ROAH 200100Z 07007KT 040V110 9999 FEW035 SCT120 20/08 Q1028 RMK 1CU035 3AC120 A3036
ROAH 200030Z 08008KT 9999 FEW035 SCT140 18/07 Q1027 RMK 1CU035 4AC140 A3035
ROAH 200000Z 07007KT 9999 FEW035 BKN140 18/08 Q1027 RMK 1CU035 6AC140 A3034
ROAH 192330Z 07005KT 020V090 9999 FEW035 SCT140 17/09 Q1027 RMK 1CU035 4AC140 A3033
ROAH 192300Z 06004KT 010V090 9999 FEW035 16/09 Q1027 RMK 1CU035 A3033
ROAH 192230Z 05006KT 9999 FEW035 15/09 Q1026 RMK 1CU035 A3031
ROAH 192200Z 06005KT 9999 FEW035 15/09 Q1026 RMK 1CU035 A3030
ROAH 192130Z 06005KT 9999 FEW035 15/09 Q1025 RMK 1CU035 A3029
ROAH 192100Z 04005KT 9999 FEW035 15/10 Q1025 RMK 1CU035 A3028
ROAH 192030Z 04005KT 9999 FEW035 16/09 Q1024 RMK 1CU035 A3026
ROAH 192000Z 04005KT 9999 FEW035 15/09 Q1025 RMK 1CU035 A3027
ROAH 191930Z 04002KT 9999 FEW035 15/09 Q1024 RMK 1CU035 A3026
ROAH 191900Z VRB01KT 9999 FEW035 14/09 Q1024 RMK 1CU035 A3026
ROAH 191830Z 03003KT CAVOK 14/09 Q1024 RMK A3026
ROAH 191800Z VRB01KT 9999 FEW030 SCT060 15/10 Q1025 RMK 1CU030 4SC060 A3027
ROAH 191730Z 06003KT 020V090 9999 FEW030 BKN060 16/11 Q1025 RMK 1CU030 6SC060 A3027
ROAH 191700Z 06004KT 020V080 CAVOK 15/10 Q1025 RMK A3028
ROAH 191630Z 08003KT CAVOK 15/09 Q1025 RMK A3028
ROAH 191600Z 07005KT CAVOK 15/09 Q1025 RMK A3028
ROAH 191530Z 09005KT CAVOK 16/09 Q1025 RMK A3028
ROAH 191500Z 09004KT CAVOK 15/09 Q1025 RMK A3029
ROAH 191430Z 09005KT CAVOK 16/09 Q1026 RMK A3030
ROAH 191400Z 06004KT CAVOK 16/09 Q1026 RMK A3030
ROAH 191330Z 07003KT 030V090 CAVOK 16/09 Q1026 RMK A3031
ROAH 191300Z 08005KT CAVOK 16/09 Q1026 RMK A3031
ROAH 191230Z 08004KT 030V120 CAVOK 16/09 Q1026 RMK A3030
ROAH 191200Z 06005KT CAVOK 17/09 Q1026 RMK A3030
ROAH 191130Z 05006KT 010V080 CAVOK 17/09 Q1025 RMK A3029
ROAH 191100Z 03004KT 9999 FEW035 SCT050 17/09 Q1025 RMK 1CU035 3SC050 A3029
ROAH 191030Z 04005KT 360V070 9999 FEW035 17/08 Q1025 RMK 1CU035 A3028
ROAH 191000Z 08006KT 020V110 9999 FEW035 17/07 Q1025 RMK 1CU035 A3027
ROAH 190930Z 09006KT 040V120 9999 FEW035 18/07 Q1024 RMK 1CU035 A3026
ROAH 190900Z 10008KT 060V130 9999 FEW035 18/07 Q1024 RMK 1CU035 A3025
ROAH 190830Z 08010KT 040V120 9999 FEW035 18/07 Q1024 RMK 1CU035 A3024
ROAH 190800Z 09009KT 9999 FEW035 SCT050 19/07 Q1024 RMK 1CU035 3SC050 A3024
ROAH 190730Z 10008KT 040V140 9999 FEW035 SCT050 19/07 Q1024 RMK 1CU035 3SC050 A3024
ROAH 190700Z 01009KT 340V040 9999 FEW035 SCT070 19/07 Q1024 RMK 1CU035 3AC070 A3024
ROAH 190630Z 35010KT 9999 FEW035 BKN070 19/07 Q1024 RMK 1CU035 5AC070 A3024
ROAH 190600Z 36010KT 9999 FEW035 BKN070 19/07 Q1024 RMK 1CU035 6AC070 A3024
ROAH 190530Z 36010KT 9999 FEW035 BKN070 19/07 Q1024 RMK 1CU035 7AC070 A3025
ROAH 190500Z 34011KT 9999 FEW035 BKN070 19/08 Q1024 RMK 1CU035 7AC070 A3026
ROAH 190430Z 35011KT 9999 FEW035 BKN070 19/07 Q1025 RMK 1CU035 7AC070 A3027
ROAH 190400Z 01010KT 340V040 9999 FEW035 BKN070 19/08 Q1025 RMK 1CU035 7AC070 A3028
ROAH 190330Z 01011KT 9999 FEW040 BKN070 18/07 Q1025 RMK 1SC040 7AC070 A3029
ROAH 190300Z 05010KT 010V070 9999 FEW040 BKN070 18/07 Q1026 RMK 1SC040 7AC070 A3031
ROAH 190230Z 03011KT 9999 FEW040 BKN070 18/08 Q1026 RMK 1SC040 7AC070 A3032
ROAH 190200Z 03009KT 9999 FEW040 BKN060 18/07 Q1027 RMK 1SC040 7SC060 A3033
ROAH 190130Z 03009KT 9999 FEW040 BKN060 17/06 Q1027 RMK 1SC040 7SC060 A3034
ROAH 190100Z 06008KT 9999 FEW040 OVC060 16/07 Q1027 RMK 1SC040 8SC060 A3034
ROAH 190030Z 06009KT 9999 VCSH FEW040 OVC060 16/07 Q1027 RMK 1SC040 8SC060 A3034
ROAH 190000Z 06008KT 9999 VCSH FEW040 OVC060 16/07 Q1027 RMK 1SC040 8SC060 A3034
ROAH 182330Z 06007KT 9999 FEW040 OVC060 16/07 Q1027 RMK 1SC040 8SC060 A3033
ROAH 182300Z 07005KT 020V110 9999 FEW040 OVC060 15/07 Q1027 RMK 1SC040 8SC060 A3033
ROAH 182230Z 07005KT 9999 FEW040 OVC060 15/08 Q1026 RMK 1SC040 8SC060 A3031
ROAH 182200Z 07007KT 9999 FEW040 OVC060 15/08 Q1026 RMK 1SC040 8SC060 A3030
ROAH 182130Z 07006KT 9999 VCSH FEW040 OVC060 15/07 Q1025 RMK 1SC040 8SC060 A3029
ROAH 182100Z 07005KT 020V120 9999 VCSH FEW040 OVC060 15/07 Q1025 RMK 1SC040 8SC060 A3028
ROAH 182030Z 08004KT 9999 FEW035 OVC060 15/07 Q1025 RMK 1CU035 8SC060 A3028
ROAH 182000Z 09004KT 9999 FEW035 OVC060 14/07 Q1025 RMK 1CU035 8SC060 A3028
ROAH 181930Z 08005KT 9999 FEW035 OVC060 15/07 Q1025 RMK 1CU035 8SC060 A3028
ROAH 181900Z 04006KT 9999 FEW035 OVC060 15/08 Q1025 RMK 1CU035 8SC060 A3027
ROAH 181830Z 04008KT 9999 FEW040 OVC060 15/08 Q1025 RMK 1SC040 8SC060 A3028
ROAH 181800Z 06007KT 9999 FEW040 OVC060 15/07 Q1025 RMK 1SC040 8SC060 A3028
ROAH 181730Z 04004KT 9999 FEW040 OVC060 14/06 Q1025 RMK 1SC040 8SC060 A3029